Time;durP1;ratioP1;P1;durP2;ratioP2;P2;SDS_P1;SDS_P2;PMS_P1;PMS_P2;Temp;Humidity;BMP_temperature;BMP_pressure;BME280_temperature;BME280_humidity;BME280_pressure;Samples;Min_cycle;Max_cycle;Signal;HPM_P1;HPM_P2
2021/05/08 00:00:01;;;;;;;18.25;7.87;;;;;;;16.18;64.96;99594.77;125134;1102;104284;-76
2021/05/08 00:02:29;;;;;;;17.37;7.87;;;;;;;16.11;65.09;99588.62;125163;1102;104146;-75
2021/05/08 00:04:57;;;;;;;18.10;8.00;;;;;;;16.06;64.68;99592.14;125212;1102;104156;-76
2021/05/08 00:07:25;;;;;;;17.10;7.90;;;;;;;16.04;64.89;99591.28;125193;1102;104159;-76
2021/05/08 00:09:52;;;;;;;18.40;8.07;;;;;;;16.04;64.99;99602.73;125116;1102;104665;-76
2021/05/08 00:12:20;;;;;;;14.70;7.60;;;;;;;16.01;65.28;99612.45;125156;1102;104331;-77
2021/05/08 00:14:48;;;;;;;18.80;8.17;;;;;;;15.96;65.34;99613.31;125214;1102;104262;-76
2021/05/08 00:17:16;;;;;;;22.80;8.97;;;;;;;15.90;65.09;99623.03;125128;1102;104182;-76
2021/05/08 00:19:44;;;;;;;17.87;8.90;;;;;;;15.83;64.43;99634.48;124967;1102;104261;-75
2021/05/08 00:22:12;;;;;;;17.57;8.70;;;;;;;15.77;64.74;99635.37;125112;1102;102012;-75
2021/05/08 00:24:40;;;;;;;20.97;9.43;;;;;;;15.72;65.80;99656.50;125150;1101;107106;-75
2021/05/08 00:27:08;;;;;;;20.97;9.57;;;;;;;15.66;65.97;99671.45;125191;1102;104269;-75
2021/05/08 00:29:36;;;;;;;19.20;8.83;;;;;;;15.60;65.68;99691.73;125188;1102;102229;-75
2021/05/08 00:32:05;;;;;;;20.20;8.90;;;;;;;15.56;65.65;99704.94;125224;1101;104175;-76
2021/05/08 00:34:33;;;;;;;15.33;8.13;;;;;;;15.52;66.29;99713.72;125189;1102;104152;-75
2021/05/08 00:37:01;;;;;;;20.10;8.03;;;;;;;15.45;65.84;99713.70;125143;1102;104280;-75
2021/05/08 00:39:29;;;;;;;17.97;8.47;;;;;;;15.36;65.69;99718.95;125028;1102;104140;-76
2021/05/08 00:41:58;;;;;;;19.17;7.77;;;;;;;15.26;65.99;99717.17;124921;1102;104171;-76
2021/05/08 00:44:26;;;;;;;15.27;7.40;;;;;;;15.16;66.66;99712.72;125079;1101;104171;-76
2021/05/08 00:46:56;;;;;;;14.40;6.97;;;;;;;15.07;66.45;99714.45;125126;1102;104350;-76
2021/05/08 00:49:27;;;;;;;14.40;6.75;;;;;;;14.93;67.45;99713.50;125170;1102;104149;-76
2021/05/08 00:51:56;;;;;;;13.40;6.20;;;;;;;14.82;66.55;99709.89;125183;1102;104350;-75
2021/05/08 00:54:24;;;;;;;15.73;6.33;;;;;;;14.69;66.62;99720.41;125123;1102;104280;-76
2021/05/08 00:56:53;;;;;;;13.77;5.77;;;;;;;14.56;67.67;99726.44;125201;1102;104195;-76
2021/05/08 00:59:21;;;;;;;15.60;5.77;;;;;;;14.44;67.13;99718.42;125175;1102;104213;-76
2021/05/08 01:01:49;;;;;;;9.87;4.50;;;;;;;14.33;67.36;99713.94;124973;1102;104316;-77
2021/05/08 01:04:18;;;;;;;10.63;5.63;;;;;;;14.22;67.56;99712.97;125158;1102;104150;-77
2021/05/08 01:06:46;;;;;;;16.60;5.90;;;;;;;14.13;67.42;99726.09;125225;1102;104287;-76
2021/05/08 01:09:14;;;;;;;11.93;5.30;;;;;;;13.99;67.78;99726.86;125157;1102;104262;-76
2021/05/08 01:11:43;;;;;;;9.23;4.90;;;;;;;13.91;68.15;99738.20;125176;1101;104204;-75
2021/05/08 01:14:11;;;;;;;12.13;4.80;;;;;;;13.82;68.68;99745.16;125148;1102;104143;-76
2021/05/08 01:16:39;;;;;;;10.57;4.90;;;;;;;13.72;68.11;99743.27;125130;1102;104140;-77
2021/05/08 01:19:09;;;;;;;12.53;4.87;;;;;;;13.63;68.62;99727.36;125169;1102;104140;-76
2021/05/08 01:21:37;;;;;;;9.93;4.93;;;;;;;13.52;68.64;99714.06;125120;1102;104146;-76
2021/05/08 01:24:06;;;;;;;7.47;4.10;;;;;;;13.44;69.14;99700.80;125180;1102;105524;-76
2021/05/08 01:26:34;;;;;;;10.30;4.87;;;;;;;13.36;68.76;99705.09;125156;1102;104226;-77
2021/05/08 01:29:03;;;;;;;9.33;4.30;;;;;;;13.29;68.90;99719.92;125176;1102;104165;-76
2021/05/08 01:31:31;;;;;;;8.87;4.37;;;;;;;13.23;69.11;99711.05;125198;1102;104143;-77
2021/05/08 01:34:02;;;;;;;9.43;5.10;;;;;;;13.15;69.17;99713.61;125122;1102;104236;-77
2021/05/08 01:36:32;;;;;;;7.30;4.10;;;;;;;13.12;69.35;99700.41;125169;1102;104448;-76
2021/05/08 01:39:02;;;;;;;10.53;4.03;;;;;;;13.09;69.41;99697.73;125087;1102;104281;-76
2021/05/08 01:41:30;;;;;;;9.77;4.60;;;;;;;13.03;70.03;99687.12;125157;1102;104146;-76
2021/05/08 01:43:59;;;;;;;7.40;3.93;;;;;;;12.97;70.02;99689.67;125127;1102;105296;-76
2021/05/08 01:46:27;;;;;;;7.87;3.90;;;;;;;12.90;69.62;99693.95;125224;1102;104277;-77
2021/05/08 01:48:55;;;;;;;11.57;4.40;;;;;;;12.88;69.91;99693.92;125119;1102;104144;-76
2021/05/08 01:51:23;;;;;;;10.70;4.70;;;;;;;12.83;69.96;99679.83;125119;1102;104172;-77
2021/05/08 01:53:51;;;;;;;8.57;4.40;;;;;;;12.82;70.08;99685.07;125197;1102;104393;-77
2021/05/08 01:56:19;;;;;;;8.87;4.60;;;;;;;12.79;69.98;99696.43;125183;1102;104174;-76
2021/05/08 01:58:48;;;;;;;12.57;4.50;;;;;;;12.75;70.14;99718.34;125161;1102;104198;-76
2021/05/08 02:01:16;;;;;;;8.90;4.40;;;;;;;12.71;70.48;99732.30;125018;1102;104214;-76
2021/05/08 02:03:44;;;;;;;9.90;4.37;;;;;;;12.63;70.62;99715.52;125163;1102;104582;-77
2021/05/08 02:06:13;;;;;;;7.37;3.50;;;;;;;12.57;70.75;99688.27;125109;1102;104201;-75
2021/05/08 02:08:58;;;;;;;9.97;4.10;;;;;;;12.51;71.21;99661.86;125215;1102;104172;-76
2021/05/08 02:11:32;;;;;;;9.05;4.35;;;;;;;12.47;71.05;99673.19;125135;1102;104929;-76
2021/05/08 02:14:00;;;;;;;9.80;4.17;;;;;;;12.44;71.00;99648.59;125215;1102;104219;-76
2021/05/08 02:16:28;;;;;;;7.57;3.57;;;;;;;12.41;70.88;99657.31;125098;1102;104168;-76
2021/05/08 02:18:56;;;;;;;11.23;4.10;;;;;;;12.39;70.73;99641.50;125180;1102;104159;-77
2021/05/08 02:21:24;;;;;;;9.63;3.80;;;;;;;12.40;70.98;99655.53;125169;1102;104175;-76
2021/05/08 02:23:52;;;;;;;7.13;4.17;;;;;;;12.43;70.86;99657.33;125144;1102;104159;-77
2021/05/08 02:26:21;;;;;;;8.20;3.90;;;;;;;12.45;71.08;99667.03;125139;1102;104283;-77
2021/05/08 02:28:49;;;;;;;7.73;3.40;;;;;;;12.49;71.06;99667.95;125193;1102;104274;-77
2021/05/08 02:31:18;;;;;;;7.83;3.47;;;;;;;12.50;70.93;99664.47;125133;1102;104149;-77
2021/05/08 02:33:46;;;;;;;14.67;4.53;;;;;;;12.50;70.98;99685.52;125193;1102;104197;-77
2021/05/08 02:36:14;;;;;;;9.80;4.00;;;;;;;12.53;70.49;99714.51;125194;1102;104158;-76
2021/05/08 02:38:44;;;;;;;7.20;3.80;;;;;;;12.52;70.99;99728.52;125050;1102;104239;-77
2021/05/08 02:41:12;;;;;;;6.17;3.80;;;;;;;12.55;71.03;99723.30;125113;1102;104344;-77
2021/05/08 02:43:40;;;;;;;5.63;3.63;;;;;;;12.55;70.71;99753.12;125152;1102;104181;-76
2021/05/08 02:46:12;;;;;;;11.70;3.53;;;;;;;12.52;70.89;99760.09;125119;1102;104278;-76
2021/05/08 02:48:40;;;;;;;7.05;3.90;;;;;;;12.48;70.91;99738.12;125119;1102;104120;-76
2021/05/08 02:51:08;;;;;;;8.07;3.47;;;;;;;12.46;71.34;99746.84;125206;1102;104169;-76
2021/05/08 02:53:37;;;;;;;5.43;3.50;;;;;;;12.44;71.23;99751.20;125156;1102;104217;-76
2021/05/08 02:56:06;;;;;;;7.77;3.63;;;;;;;12.39;71.45;99741.48;125056;1102;104284;-78
2021/05/08 02:58:38;;;;;;;5.87;3.27;;;;;;;12.40;71.54;99742.35;125190;1102;104207;-77
2021/05/08 03:01:13;;;;;;;5.47;3.53;;;;;;;12.37;71.65;99748.47;125166;1102;104599;-76
2021/05/08 03:03:42;;;;;;;7.90;3.63;;;;;;;12.39;71.54;99740.60;125174;1102;104830;-77
2021/05/08 03:06:11;;;;;;;8.60;3.50;;;;;;;12.42;71.62;99743.28;125118;1102;104431;-77
2021/05/08 03:08:42;;;;;;;6.67;3.87;;;;;;;12.40;71.67;99744.98;125215;1102;104277;-76
2021/05/08 03:11:14;;;;;;;7.97;3.50;;;;;;;12.35;71.64;99751.92;125099;1102;104137;-76
2021/05/08 03:13:42;;;;;;;5.95;3.45;;;;;;;12.35;71.55;99765.95;125194;1102;104143;-76
2021/05/08 03:16:10;;;;;;;5.20;3.20;;;;;;;12.32;71.55;99778.18;125081;1102;104623;-76
2021/05/08 03:18:38;;;;;;;6.30;3.20;;;;;;;12.30;71.47;99787.80;125154;1102;104303;-76
2021/05/08 03:21:06;;;;;;;6.20;3.13;;;;;;;12.29;71.68;99796.54;124994;1102;104283;-77
2021/05/08 03:23:35;;;;;;;7.40;3.80;;;;;;;12.26;71.66;99815.77;125192;1102;104165;-77
2021/05/08 03:26:03;;;;;;;5.83;3.37;;;;;;;12.25;71.53;99810.48;125145;1102;104178;-77
2021/05/08 03:28:31;;;;;;;9.33;3.50;;;;;;;12.22;71.51;99817.47;125195;1102;104694;-77
2021/05/08 03:30:59;;;;;;;7.03;3.53;;;;;;;12.18;71.75;99833.17;125111;1102;104383;-76
2021/05/08 03:33:27;;;;;;;6.83;3.60;;;;;;;12.17;71.85;99855.05;125199;1102;104299;-76
2021/05/08 03:35:55;;;;;;;4.60;3.23;;;;;;;12.17;71.74;99871.75;125070;1102;104297;-75
2021/05/08 03:38:24;;;;;;;6.87;3.23;;;;;;;12.18;71.63;99888.41;125158;1102;104201;-76
2021/05/08 03:40:52;;;;;;;6.50;3.30;;;;;;;12.14;71.71;99881.30;124981;1102;104337;-76
2021/05/08 03:43:19;;;;;;;5.70;3.40;;;;;;;12.13;71.62;99890.06;125129;1102;104211;-77
2021/05/08 03:45:49;;;;;;;6.80;3.53;;;;;;;12.10;71.73;99908.41;125125;1102;104155;-77
2021/05/08 03:48:17;;;;;;;7.30;3.63;;;;;;;12.09;71.73;99941.73;125182;1102;104575;-77
2021/05/08 03:50:46;;;;;;;5.50;3.37;;;;;;;12.12;72.21;99996.98;125234;1102;104675;-77
2021/05/08 03:53:14;;;;;;;5.73;3.13;;;;;;;12.15;71.90;100028.61;125142;1102;104146;-77
2021/05/08 03:55:42;;;;;;;4.90;2.80;;;;;;;12.15;72.11;100033.87;125166;1102;104175;-77
2021/05/08 03:58:10;;;;;;;6.50;2.90;;;;;;;12.14;71.83;100036.47;125141;1102;104169;-77
2021/05/08 04:00:38;;;;;;;3.80;2.37;;;;;;;12.10;72.01;100027.64;125120;1102;104152;-76
2021/05/08 04:03:06;;;;;;;3.80;1.90;;;;;;;11.99;71.98;100016.87;125157;1103;104142;-76
2021/05/08 04:05:34;;;;;;;4.13;1.73;;;;;;;11.83;71.88;100015.62;124969;1102;104175;-76
2021/05/08 04:08:02;;;;;;;2.55;1.60;;;;;;;11.71;72.02;100023.22;124983;1102;105475;-77
2021/05/08 04:10:30;;;;;;;2.43;1.70;;;;;;;11.59;72.31;100023.80;125183;1102;104175;-77
2021/05/08 04:12:58;;;;;;;4.60;1.85;;;;;;;11.48;72.54;100014.78;125114;1102;104150;-77
2021/05/08 04:15:26;;;;;;;4.43;1.87;;;;;;;11.38;72.92;100016.31;125195;1102;104207;-77
2021/05/08 04:17:54;;;;;;;4.73;1.80;;;;;;;11.32;72.98;100026.66;125121;1102;105742;-77
2021/05/08 04:20:22;;;;;;;3.27;2.00;;;;;;;11.27;72.43;100033.55;125066;1102;104287;-77
2021/05/08 04:22:50;;;;;;;4.20;1.87;;;;;;;11.23;72.92;100044.81;125015;1102;104211;-77
2021/05/08 04:25:18;;;;;;;7.17;2.30;;;;;;;11.22;72.48;100040.40;125148;1101;104284;-77
2021/05/08 04:27:46;;;;;;;6.40;2.47;;;;;;;11.23;72.98;100044.81;125156;1102;104277;-76
2021/05/08 04:30:15;;;;;;;4.83;2.43;;;;;;;11.22;72.96;100040.40;125182;1102;104236;-77
2021/05/08 04:32:45;;;;;;;6.27;2.60;;;;;;;11.20;73.28;100024.60;125200;1102;104201;-77
2021/05/08 04:35:13;;;;;;;6.33;2.80;;;;;;;11.18;72.98;100017.55;125195;1102;104194;-77
2021/05/08 04:37:43;;;;;;;5.07;2.70;;;;;;;11.17;73.43;100013.14;125153;1102;104163;-77
2021/05/08 04:40:12;;;;;;;5.30;2.63;;;;;;;11.17;73.50;100008.77;125154;1102;104287;-77
2021/05/08 04:42:40;;;;;;;7.03;2.60;;;;;;;11.18;73.58;100000.05;125173;1102;104275;-77
2021/05/08 04:45:08;;;;;;;6.57;2.67;;;;;;;11.15;73.34;100011.35;125054;1102;104156;-76
2021/05/08 04:47:36;;;;;;;5.63;3.20;;;;;;;11.19;73.64;100032.44;125148;1102;104278;-76
2021/05/08 04:50:05;;;;;;;6.57;3.60;;;;;;;11.21;73.44;100060.53;125175;1102;104274;-77
2021/05/08 04:52:33;;;;;;;9.77;4.87;;;;;;;11.22;73.36;100072.83;125173;1102;104350;-76
2021/05/08 04:55:03;;;;;;;12.67;5.47;;;;;;;11.26;73.48;100081.66;125163;1102;103030;-76
2021/05/08 04:57:31;;;;;;;11.33;5.13;;;;;;;11.30;73.33;100075.66;125010;1102;104252;-77
2021/05/08 04:59:59;;;;;;;11.73;6.03;;;;;;;11.33;73.39;100078.36;125113;1102;104152;-74
2021/05/08 05:02:28;;;;;;;15.67;7.50;;;;;;;11.35;73.22;100081.02;125020;1102;104172;-75
2021/05/08 05:04:56;;;;;;;13.47;6.33;;;;;;;11.35;73.37;100089.78;125162;1102;104153;-76
2021/05/08 05:07:26;;;;;;;14.13;6.73;;;;;;;11.36;73.61;100094.20;124961;1102;104299;-75
2021/05/08 05:09:58;;;;;;;16.87;7.60;;;;;;;11.39;73.57;100101.25;125058;1102;104274;-76
2021/05/08 05:12:26;;;;;;;12.97;6.80;;;;;;;11.40;73.64;100096.03;125117;1102;104147;-77
2021/05/08 05:14:54;;;;;;;14.00;5.90;;;;;;;11.44;73.75;100097.91;124921;1102;104404;-76
2021/05/08 05:17:22;;;;;;;14.40;6.67;;;;;;;11.46;73.69;100096.19;124933;1102;104155;-75
2021/05/08 05:19:50;;;;;;;14.30;6.57;;;;;;;11.49;73.67;100100.65;124901;1105;104197;-76
2021/05/08 05:22:18;;;;;;;15.37;7.17;;;;;;;11.50;73.83;100087.55;124914;1105;104450;-76
2021/05/08 05:24:46;;;;;;;14.73;7.00;;;;;;;11.51;73.94;100084.09;124927;1105;104299;-77
2021/05/08 05:27:14;;;;;;;16.93;7.50;;;;;;;11.57;73.58;100070.19;124945;1105;104472;-76
2021/05/08 05:29:42;;;;;;;13.30;6.80;;;;;;;11.62;73.85;100097.46;124914;1102;104178;-77
2021/05/08 05:32:10;;;;;;;15.27;7.03;;;;;;;11.66;74.21;100091.44;124964;1102;104152;-77
2021/05/08 05:34:39;;;;;;;14.53;7.10;;;;;;;11.73;74.12;100089.84;124943;1102;104206;-77
2021/05/08 05:37:07;;;;;;;14.07;6.80;;;;;;;11.81;74.12;100090.03;124920;1102;104175;-77
2021/05/08 05:39:35;;;;;;;15.87;7.57;;;;;;;11.84;74.08;100077.87;124934;1102;104306;-77
2021/05/08 05:42:03;;;;;;;17.50;7.75;;;;;;;11.88;74.06;100079.70;124952;1105;104145;-77
2021/05/08 05:44:31;;;;;;;14.33;7.83;;;;;;;11.93;74.07;100090.36;124947;1105;104169;-78
2021/05/08 05:47:00;;;;;;;16.17;7.20;;;;;;;12.07;74.31;100095.06;125086;1102;105808;-77
2021/05/08 05:49:28;;;;;;;10.20;5.80;;;;;;;12.13;74.39;100105.73;125176;1102;104165;-77
2021/05/08 05:51:56;;;;;;;14.47;7.30;;;;;;;12.07;74.33;100109.09;125233;1102;104287;-78
2021/05/08 05:54:24;;;;;;;12.13;6.90;;;;;;;12.01;74.24;100114.20;125210;1102;104166;-78
2021/05/08 05:56:52;;;;;;;15.20;7.60;;;;;;;11.91;74.37;100120.96;125123;1102;104158;-77
2021/05/08 05:59:20;;;;;;;12.97;7.50;;;;;;;11.82;74.39;100136.51;125070;1102;104208;-77
2021/05/08 06:01:48;;;;;;;15.63;8.83;;;;;;;11.74;74.11;100128.43;125131;1102;104149;-77
2021/05/08 06:04:17;;;;;;;14.30;8.70;;;;;;;11.67;74.00;100140.54;125064;1102;104645;-77
2021/05/08 06:06:44;;;;;;;14.70;7.87;;;;;;;11.61;74.30;100149.98;125196;1102;104191;-77
2021/05/08 06:09:12;;;;;;;8.07;5.30;;;;;;;11.53;74.33;100164.67;125044;1102;104162;-77
2021/05/08 06:11:40;;;;;;;6.50;3.80;;;;;;;11.35;74.27;100155.45;125150;1102;104207;-77
2021/05/08 06:14:08;;;;;;;4.93;3.23;;;;;;;11.19;74.55;100167.28;125092;1102;104216;-77
2021/05/08 06:16:36;;;;;;;4.47;2.60;;;;;;;11.07;73.91;100162.56;125118;1102;104140;-77
2021/05/08 06:19:04;;;;;;;4.10;2.60;;;;;;;11.08;73.73;100174.86;125139;1102;104175;-77
2021/05/08 06:21:32;;;;;;;2.60;2.20;;;;;;;11.19;73.59;100182.13;125102;1102;104218;-77
2021/05/08 06:24:00;;;;;;;4.53;2.77;;;;;;;11.20;74.48;100207.56;125167;1102;104332;-77
2021/05/08 06:26:28;;;;;;;3.63;2.47;;;;;;;11.09;73.54;100192.38;125170;1103;104149;-76
2021/05/08 06:32:10;;;;;;;6.42;2.05;;;;;;;11.18;73.16;100186.50;125063;1102;106917;-76
2021/05/08 06:34:38;;;;;;;2.90;1.90;;;;;;;11.25;73.16;100196.34;125207;1102;104171;-76
2021/05/08 06:37:10;;;;;;;2.95;1.65;;;;;;;11.40;73.33;100206.37;125020;1103;104473;-76
2021/05/08 06:39:38;;;;;;;2.47;1.70;;;;;;;11.53;72.79;100207.63;125203;1102;104264;-76
2021/05/08 06:42:07;;;;;;;4.67;1.57;;;;;;;11.61;72.63;100211.34;125134;1102;104160;-77
2021/05/08 06:44:35;;;;;;;1.70;1.60;;;;;;;11.73;72.82;100212.50;125101;1102;104176;-77
2021/05/08 06:47:03;;;;;;;3.20;1.73;;;;;;;11.73;72.61;100223.89;125136;1102;104229;-77
2021/05/08 06:49:31;;;;;;;3.13;1.70;;;;;;;11.76;72.50;100218.72;125135;1102;104156;-77
2021/05/08 06:52:00;;;;;;;4.43;2.07;;;;;;;11.85;72.66;100220.71;125164;1102;104229;-77
2021/05/08 06:54:27;;;;;;;2.00;1.80;;;;;;;11.92;72.53;100216.49;125171;1102;104634;-76
2021/05/08 06:56:55;;;;;;;1.83;1.63;;;;;;;12.06;72.61;100223.05;125112;1102;104219;-76
2021/05/08 06:59:23;;;;;;;3.60;1.90;;;;;;;12.09;72.42;100224.84;125132;1102;104320;-76
2021/05/08 07:01:52;;;;;;;4.20;2.03;;;;;;;12.13;72.56;100219.70;125023;1102;104149;-76
2021/05/08 07:04:20;;;;;;;2.87;2.00;;;;;;;12.08;72.11;100233.61;125122;1102;104147;-77
2021/05/08 07:06:48;;;;;;;2.60;1.90;;;;;;;12.06;72.01;100246.72;125198;1102;104162;-75
2021/05/08 07:09:16;;;;;;;2.10;1.90;;;;;;;12.05;72.40;100237.92;124930;1102;104181;-77
2021/05/08 07:11:44;;;;;;;2.40;1.73;;;;;;;11.97;72.16;100273.66;125121;1102;104178;-76
2021/05/08 07:14:12;;;;;;;2.70;1.70;;;;;;;11.88;72.15;100270.75;125207;1102;104152;-76
2021/05/08 07:16:40;;;;;;;2.93;1.97;;;;;;;11.77;71.87;100265.20;125191;1102;104144;-76
2021/05/08 07:19:08;;;;;;;3.50;1.73;;;;;;;11.73;72.07;100279.09;125128;1102;104262;-76
2021/05/08 07:21:35;;;;;;;2.90;2.00;;;;;;;11.75;71.69;100293.19;125040;1102;104137;-76
2021/05/08 07:24:04;;;;;;;4.90;1.90;;;;;;;11.73;71.12;100289.61;124976;1102;104254;-76
2021/05/08 07:26:32;;;;;;;3.13;2.13;;;;;;;11.77;71.31;100302.00;124910;1102;104140;-76
2021/05/08 07:29:00;;;;;;;3.33;1.93;;;;;;;11.88;71.23;100295.28;125173;1102;104155;-75
2021/05/08 07:31:28;;;;;;;4.03;1.93;;;;;;;12.01;71.11;100301.83;125092;1102;104153;-76
2021/05/08 07:33:56;;;;;;;1.93;1.70;;;;;;;11.98;71.06;100290.31;125147;1102;104156;-77
2021/05/08 07:36:24;;;;;;;2.90;1.83;;;;;;;11.99;69.61;100303.50;125160;1102;104242;-77
2021/05/08 07:38:52;;;;;;;4.23;2.10;;;;;;;11.99;70.23;100292.98;125069;1102;104323;-77
2021/05/08 07:41:20;;;;;;;3.33;1.97;;;;;;;12.03;70.12;100309.75;124941;1103;104150;-76
2021/05/08 07:43:47;;;;;;;2.00;1.80;;;;;;;12.03;70.47;100293.98;124911;1102;111890;-77
2021/05/08 07:46:16;;;;;;;3.07;2.20;;;;;;;11.98;69.83;100300.83;124906;1105;104344;-77
2021/05/08 07:48:44;;;;;;;4.70;2.47;;;;;;;11.91;69.36;100319.91;124929;1102;104457;-77
2021/05/08 07:51:12;;;;;;;4.30;2.10;;;;;;;11.99;69.19;100311.39;124883;1101;104460;-77
2021/05/08 07:53:40;;;;;;;2.33;1.93;;;;;;;12.08;68.75;100313.39;124874;1102;104190;-77
2021/05/08 07:56:09;;;;;;;3.73;2.23;;;;;;;12.23;68.81;100321.69;124912;1102;104371;-76
2021/05/08 07:58:40;;;;;;;2.63;2.40;;;;;;;12.45;69.44;100318.69;124971;1102;105134;-77
2021/05/08 08:01:08;;;;;;;2.73;1.97;;;;;;;12.65;68.38;100316.55;124947;1102;104272;-76
2021/05/08 08:03:36;;;;;;;5.73;2.30;;;;;;;12.77;68.23;100330.90;124919;1102;104319;-77
2021/05/08 08:06:05;;;;;;;2.00;1.90;;;;;;;12.89;67.39;100324.17;124959;1102;104284;-76
2021/05/08 08:08:33;;;;;;;2.00;1.80;;;;;;;13.13;66.68;100313.28;124944;1102;104300;-76
2021/05/08 08:11:01;;;;;;;2.40;2.20;;;;;;;13.39;67.31;100327.06;124928;1102;104313;-77
2021/05/08 08:13:29;;;;;;;4.30;2.07;;;;;;;13.48;66.52;100329.02;125090;1102;104403;-76
2021/05/08 08:15:57;;;;;;;3.60;1.83;;;;;;;13.69;65.15;100333.83;125006;1102;104152;-76
2021/05/08 08:18:27;;;;;;;3.40;2.13;;;;;;;13.70;66.00;100346.17;125192;1102;104201;-76
2021/05/08 08:20:55;;;;;;;3.40;1.97;;;;;;;13.75;66.31;100349.78;125103;1102;104663;-76
2021/05/08 08:23:23;;;;;;;2.97;2.40;;;;;;;13.68;66.46;100349.62;124987;1102;104211;-76
2021/05/08 08:25:51;;;;;;;2.43;1.60;;;;;;;13.55;66.07;100330.03;125165;1102;104159;-76
2021/05/08 08:28:19;;;;;;;2.10;1.90;;;;;;;13.76;65.71;100326.92;125105;1102;104265;-76
2021/05/08 08:30:47;;;;;;;3.67;1.97;;;;;;;13.95;65.68;100325.56;125143;1102;104150;-77
2021/05/08 08:33:15;;;;;;;2.60;2.00;;;;;;;14.02;66.10;100343.27;125184;1102;105045;-77
2021/05/08 08:35:43;;;;;;;2.00;1.80;;;;;;;14.02;64.95;100351.18;125156;1102;104214;-77
2021/05/08 08:38:11;;;;;;;2.63;1.90;;;;;;;14.06;64.67;100338.95;125105;1102;104165;-77
2021/05/08 08:40:39;;;;;;;3.43;1.60;;;;;;;14.03;64.69;100329.22;125121;1102;104197;-77
2021/05/08 08:43:07;;;;;;;3.60;1.40;;;;;;;13.89;64.52;100336.88;125106;1102;104272;-76
2021/05/08 08:45:35;;;;;;;1.80;1.53;;;;;;;13.84;63.79;100343.81;124972;1102;104200;-77
2021/05/08 08:48:02;;;;;;;2.57;1.67;;;;;;;13.93;64.04;100338.72;124998;1102;104229;-77
2021/05/08 08:50:35;;;;;;;1.97;1.37;;;;;;;14.16;64.41;100338.25;125222;1102;104168;-77
2021/05/08 08:53:05;;;;;;;2.00;1.33;;;;;;;14.29;61.69;100342.91;125118;1102;104162;-77
2021/05/08 08:55:35;;;;;;;2.77;1.60;;;;;;;14.32;63.16;100348.23;125127;1102;104286;-77
2021/05/08 08:58:07;;;;;;;5.93;1.87;;;;;;;14.39;62.62;100336.91;125165;1102;104309;-77
2021/05/08 09:00:35;;;;;;;2.70;1.50;;;;;;;14.52;62.72;100335.39;125101;1102;104289;-77
2021/05/08 09:03:03;;;;;;;4.27;1.60;;;;;;;14.60;62.53;100342.53;125125;1102;104291;-77
2021/05/08 09:05:32;;;;;;;2.13;1.60;;;;;;;14.71;60.21;100357.73;125024;1102;104194;-75
2021/05/08 09:08:05;;;;;;;2.50;1.40;;;;;;;14.88;61.49;100343.89;125095;1102;104297;-75
2021/05/08 09:10:34;;;;;;;4.10;1.75;;;;;;;14.93;61.97;100347.52;125148;1102;104161;-76
2021/05/08 09:13:03;;;;;;;1.40;1.30;;;;;;;14.91;62.26;100354.51;124924;1102;104169;-75
2021/05/08 09:15:35;;;;;;;2.70;1.53;;;;;;;14.86;61.88;100361.48;125162;1102;104332;-75
2021/05/08 09:18:05;;;;;;;2.73;2.13;;;;;;;14.94;62.10;100365.13;125202;1102;104197;-75
2021/05/08 09:20:44;;;;;;;3.70;1.70;;;;;;;14.79;60.44;100375.44;125158;1103;104597;-75
2021/05/08 09:23:23;;;;;;;2.90;2.10;;;;;;;14.62;60.76;100383.98;124995;1102;104201;-76
2021/05/08 09:26:04;;;;;;;2.30;1.70;;;;;;;14.58;60.11;100390.03;125147;1102;106917;-75
2021/05/08 09:28:34;;;;;;;2.33;1.60;;;;;;;14.51;60.52;100398.73;125230;1102;104162;-76
2021/05/08 09:31:05;;;;;;;1.73;1.50;;;;;;;14.43;59.45;100395.03;125114;1102;104184;-76
2021/05/08 09:33:33;;;;;;;2.23;1.83;;;;;;;14.34;59.82;100411.61;125200;1102;104161;-76
2021/05/08 09:36:04;;;;;;;2.70;1.87;;;;;;;14.36;60.33;100400.20;125069;1102;104246;-76
2021/05/08 09:38:35;;;;;;;3.17;1.77;;;;;;;14.34;60.05;100409.85;125199;1102;104245;-76
2021/05/08 09:41:07;;;;;;;1.60;1.50;;;;;;;14.46;59.26;100408.30;125168;1102;104232;-76
2021/05/08 09:43:39;;;;;;;2.67;1.60;;;;;;;14.66;58.26;100412.24;125176;1102;104373;-75
2021/05/08 09:46:23;;;;;;;4.80;1.87;;;;;;;14.60;58.47;100429.67;124904;1101;104325;-75
2021/05/08 09:49:11;;;;;;;4.12;2.02;;;;;;;14.52;58.86;100400.48;124967;1102;104451;-75
2021/05/08 09:51:39;;;;;;;2.63;2.00;;;;;;;14.51;56.07;100404.89;125184;1102;102249;-75
2021/05/08 09:54:20;;;;;;;3.77;1.90;;;;;;;14.43;56.34;100400.31;125110;1102;104195;-76
2021/05/08 09:56:51;;;;;;;3.43;1.80;;;;;;;14.40;56.52;100393.25;125129;1102;104316;-75
2021/05/08 09:59:26;;;;;;;2.87;2.27;;;;;;;14.28;57.27;100404.45;125186;1102;104159;-75
2021/05/08 10:02:15;;;;;;;4.47;2.07;;;;;;;14.25;56.68;100401.76;125022;1102;104220;-75
2021/05/08 10:04:46;;;;;;;4.87;2.30;;;;;;;14.34;57.33;100415.13;125113;1102;104223;-76
2021/05/08 10:07:15;;;;;;;4.40;2.00;;;;;;;14.33;56.56;100410.70;125193;1101;103978;-76
2021/05/08 10:09:45;;;;;;;3.33;2.30;;;;;;;14.31;55.76;100385.16;124981;1102;104194;-75
2021/05/08 10:12:14;;;;;;;3.27;2.43;;;;;;;14.42;55.25;100404.72;125199;1101;104130;-75
2021/05/08 10:14:43;;;;;;;3.90;2.30;;;;;;;14.55;54.83;100412.02;125073;1102;104168;-75
2021/05/08 10:17:13;;;;;;;2.40;2.20;;;;;;;14.65;55.23;100421.02;125136;1102;104178;-75
2021/05/08 10:19:45;;;;;;;4.10;2.20;;;;;;;14.65;55.60;100431.58;125193;1102;104256;-76
2021/05/08 10:22:14;;;;;;;3.63;2.60;;;;;;;14.75;55.03;100429.98;125073;1102;104246;-76
2021/05/08 10:24:44;;;;;;;2.90;2.60;;;;;;;14.82;55.62;100439.80;124958;1102;104310;-76
2021/05/08 10:27:13;;;;;;;4.33;2.90;;;;;;;14.95;55.41;100434.73;125096;1102;110862;-76
2021/05/08 10:29:42;;;;;;;5.13;3.03;;;;;;;14.87;54.74;100443.41;125171;1101;104211;-75
2021/05/08 10:32:14;;;;;;;5.13;3.00;;;;;;;14.85;54.32;100455.70;124972;1102;104826;-76
2021/05/08 10:34:51;;;;;;;3.50;2.70;;;;;;;14.91;53.03;100462.83;125096;1102;104291;-76
2021/05/08 10:37:20;;;;;;;5.30;2.90;;;;;;;14.91;54.26;100470.75;125122;1102;104376;-76
2021/05/08 10:39:51;;;;;;;4.57;2.70;;;;;;;14.91;54.08;100449.62;125153;1102;104150;-75
2021/05/08 10:42:31;;;;;;;3.70;2.70;;;;;;;14.99;54.74;100463.87;125253;1102;104220;-75
2021/05/08 10:45:01;;;;;;;3.83;2.67;;;;;;;15.06;54.63;100463.09;125193;1102;104213;-75
2021/05/08 10:47:55;;;;;;;3.63;2.40;;;;;;;15.14;53.06;100467.63;124899;1102;104166;-75
2021/05/08 10:50:26;;;;;;;6.83;2.93;;;;;;;14.93;52.57;100474.34;125024;1102;104144;-75
2021/05/08 10:53:05;;;;;;;4.47;3.10;;;;;;;14.72;52.95;100475.73;125001;1102;104341;-75
2021/05/08 10:55:48;;;;;;;5.20;3.07;;;;;;;14.63;51.10;100485.22;125206;1102;104149;-75
2021/05/08 10:58:31;;;;;;;7.13;3.03;;;;;;;14.43;51.18;100471.59;125142;1103;104204;-76
2021/05/08 11:01:01;;;;;;;6.47;3.42;;;;;;;14.36;51.86;100491.71;125092;1102;104602;-76
2021/05/08 11:03:31;;;;;;;3.47;3.00;;;;;;;14.36;52.29;100489.95;125223;1102;104249;-75
2021/05/08 11:06:02;;;;;;;3.57;2.90;;;;;;;14.35;52.11;100492.56;125029;1102;104147;-75
2021/05/08 11:08:47;;;;;;;6.13;2.80;;;;;;;14.42;52.12;100496.23;124960;1102;104209;-76
2021/05/08 11:11:19;;;;;;;6.27;3.10;;;;;;;14.52;51.92;100498.17;125208;1102;104277;-75
2021/05/08 11:14:02;;;;;;;5.07;3.00;;;;;;;14.54;51.71;100496.48;125166;1102;104334;-76
2021/05/08 11:16:32;;;;;;;5.50;3.40;;;;;;;14.46;51.77;100503.33;125172;1102;104281;-75
2021/05/08 11:19:01;;;;;;;5.77;2.67;;;;;;;14.54;51.70;100499.12;125212;1102;104165;-75
2021/05/08 11:21:42;;;;;;;2.67;2.40;;;;;;;14.83;50.93;100501.44;125023;1102;104165;-75